This is the latest recevied weather packets stored in our database for station/object HK4CL-10. If no packets are shown the sender has not sent any weather packets the latest 10 day(s).
| Time | Temp. | Humidity | Pressure | Rain* | Wind** | Luminosity | Snow |
|---|---|---|---|---|---|---|---|
| 1787683660 | 29.44° C | 40% | 818.2 hPa | - | - | - | - |
| 1787682760 | 28.33° C | 46% | 818.3 hPa | - | - | - | - |
| 1787681860 | 28.33° C | 32% | 818.5 hPa | - | - | - | - |
| 1787680960 | 28.33° C | 35% | 818.6 hPa | - | - | - | - |
| 1787680060 | 28.33° C | 42% | 818.8 hPa | - | - | - | - |
| 1787679159 | 31.11° C | 27% | 819 hPa | - | - | - | - |
| 1787678259 | 30° C | 31% | 819.2 hPa | - | - | - | - |
| 1787677359 | 31.11° C | 32% | 819.5 hPa | - | - | - | - |
| 1787676459 | 31.67° C | 30% | 820 hPa | - | - | - | - |
| 1787675559 | 30° C | 34% | 820 hPa | - | - | - | - |
| 1787674658 | 30.56° C | 36% | 820.3 hPa | - | - | - | - |
| 1787673758 | 30° C | 36% | 820.5 hPa | - | - | - | - |
| 1787672858 | 28.33° C | 40% | 820.7 hPa | - | - | - | - |
| 1787671958 | 29.44° C | 38% | 821 hPa | - | - | - | - |
| 1787671058 | 28.33° C | 41% | 821.2 hPa | - | - | - | - |
| 1787670157 | 27.78° C | 43% | 821.4 hPa | - | - | - | - |
| 1787669256 | 27.22° C | 46% | 821.5 hPa | - | - | - | - |
| 1787668356 | 26.67° C | 48% | 821.5 hPa | - | - | - | - |
| 1787667511 | 25° C | 51% | 821.4 hPa | - | - | - | - |
| 1787667455 | 25° C | 51% | 821.4 hPa | - | - | - | - |
| 1787666564 | 25° C | 54% | 821.5 hPa | - | - | - | - |
| 1787665664 | 23.89° C | 57% | 821.5 hPa | - | - | - | - |
| 1787664763 | 22.22° C | 68% | 821.6 hPa | - | - | - | - |
| 1787663863 | 20.56° C | 73% | 821.5 hPa | - | - | - | - |
| 1787662963 | 20° C | 76% | 821.3 hPa | - | - | - | - |
* Rain since midnight (hover to see other rain measurements)
** Current wind speed in m/s (hover to see current wind gust speed)